createdAt,value
2018-08-30T00:00:29.434Z,100.00
2018-08-30T00:02:34.150Z,100.00
2018-08-30T00:04:38.977Z,100.00
2018-08-30T00:06:43.676Z,100.00
2018-08-30T00:08:48.510Z,100.00
2018-08-30T00:10:53.418Z,100.00
2018-08-30T00:12:58.228Z,100.00
2018-08-30T00:15:02.961Z,100.00
2018-08-30T00:17:07.720Z,100.00
2018-08-30T00:19:12.466Z,100.00
2018-08-30T00:21:17.204Z,100.00
2018-08-30T00:23:21.947Z,100.00
2018-08-30T00:25:26.715Z,100.00
2018-08-30T00:27:31.445Z,100.00
2018-08-30T00:29:36.355Z,100.00
2018-08-30T00:31:41.093Z,100.00
2018-08-30T00:33:45.914Z,100.00
2018-08-30T00:35:50.717Z,100.00
2018-08-30T00:37:55.500Z,100.00
2018-08-30T00:40:00.242Z,100.00
2018-08-30T00:42:05.079Z,100.00
2018-08-30T00:44:09.911Z,100.00
2018-08-30T00:46:14.728Z,100.00
2018-08-30T00:48:19.572Z,100.00
2018-08-30T00:52:21.109Z,100.00
2018-08-30T00:54:25.884Z,100.00
2018-08-30T00:56:30.766Z,100.00
2018-08-30T00:58:35.570Z,100.00
2018-08-30T01:00:40.325Z,100.00
2018-08-30T01:02:45.118Z,100.00
2018-08-30T01:04:49.787Z,100.00
2018-08-30T01:06:54.639Z,100.00
2018-08-30T01:08:59.474Z,100.00
2018-08-30T01:11:04.211Z,100.00
2018-08-30T01:13:09.005Z,100.00
2018-08-30T01:15:13.667Z,100.00
2018-08-30T01:17:18.462Z,100.00
2018-08-30T01:19:23.318Z,100.00
2018-08-30T01:21:28.259Z,100.00
2018-08-30T01:23:33.105Z,100.00
2018-08-30T01:25:38.086Z,100.00
2018-08-30T01:27:42.874Z,100.00
2018-08-30T01:29:47.590Z,100.00
2018-08-30T01:31:52.459Z,100.00
2018-08-30T01:33:57.208Z,100.00
2018-08-30T01:36:01.973Z,100.00
2018-08-30T01:38:06.758Z,100.00
2018-08-30T01:40:11.503Z,100.00
2018-08-30T01:42:16.180Z,100.00
2018-08-30T01:44:20.906Z,100.00
2018-08-30T01:46:25.660Z,100.00
2018-08-30T01:48:30.587Z,100.00
2018-08-30T01:50:36.312Z,100.00
2018-08-30T01:52:41.195Z,100.00
2018-08-30T01:54:45.996Z,100.00
2018-08-30T01:56:50.913Z,100.00
2018-08-30T01:58:55.789Z,100.00
2018-08-30T02:01:00.573Z,100.00
2018-08-30T02:03:05.831Z,100.00
2018-08-30T02:05:10.611Z,100.00
2018-08-30T02:07:15.468Z,100.00
2018-08-30T02:09:20.236Z,100.00
2018-08-30T02:11:24.931Z,100.00
2018-08-30T02:13:29.673Z,100.00
2018-08-30T02:15:34.509Z,99.81
2018-08-30T02:17:39.430Z,100.00
2018-08-30T02:19:44.245Z,100.00
2018-08-30T02:21:49.053Z,99.68
2018-08-30T02:23:53.829Z,100.00
2018-08-30T02:25:58.532Z,100.00
2018-08-30T02:28:03.521Z,100.00
2018-08-30T02:30:08.430Z,100.00
2018-08-30T02:32:13.091Z,100.00
2018-08-30T02:34:17.920Z,100.00
2018-08-30T02:36:22.738Z,100.00
2018-08-30T02:38:27.545Z,100.00
2018-08-30T02:40:32.595Z,100.00
2018-08-30T02:42:37.481Z,100.00
2018-08-30T02:44:42.491Z,100.00
2018-08-30T02:46:47.352Z,100.00
2018-08-30T02:48:52.134Z,100.00
2018-08-30T02:50:57.033Z,100.00
2018-08-30T02:53:01.964Z,100.00
2018-08-30T02:55:06.800Z,100.00
2018-08-30T02:57:11.703Z,100.00
2018-08-30T02:59:16.509Z,100.00
2018-08-30T03:01:21.332Z,100.00
2018-08-30T03:03:26.260Z,100.00
2018-08-30T03:05:31.140Z,100.00
2018-08-30T03:07:35.901Z,100.00
2018-08-30T03:09:40.668Z,100.00
2018-08-30T03:11:45.354Z,100.00
2018-08-30T03:13:50.188Z,100.00
2018-08-30T03:15:54.964Z,100.00
2018-08-30T03:17:59.805Z,100.00
2018-08-30T03:20:05.752Z,100.00
2018-08-30T03:22:10.541Z,100.00
2018-08-30T03:24:15.264Z,100.00
2018-08-30T03:26:20.053Z,100.00
2018-08-30T03:28:24.796Z,100.00
2018-08-30T03:30:29.787Z,100.00
2018-08-30T03:32:34.368Z,100.00
2018-08-30T03:34:39.053Z,100.00
2018-08-30T03:36:43.959Z,100.00
2018-08-30T03:38:49.225Z,100.00
2018-08-30T03:40:54.086Z,100.00
2018-08-30T03:42:58.949Z,100.00
2018-08-30T03:45:03.771Z,100.00
2018-08-30T03:47:08.596Z,100.00
2018-08-30T03:49:13.451Z,100.00
2018-08-30T03:51:18.224Z,100.00
2018-08-30T03:53:22.908Z,100.00
2018-08-30T03:55:27.786Z,100.00
2018-08-30T03:57:32.567Z,100.00
2018-08-30T03:59:37.724Z,100.00
2018-08-30T04:01:42.527Z,100.00
2018-08-30T04:03:47.518Z,100.00
2018-08-30T04:05:52.300Z,100.00
2018-08-30T04:07:57.112Z,100.00
2018-08-30T04:10:01.905Z,100.00
2018-08-30T04:12:06.663Z,99.94
2018-08-30T04:14:11.459Z,100.00
2018-08-30T04:16:16.191Z,100.00
2018-08-30T04:18:20.893Z,100.00
2018-08-30T04:20:25.835Z,100.00
2018-08-30T04:22:30.792Z,100.00
2018-08-30T04:24:35.559Z,99.15
2018-08-30T04:26:40.297Z,99.26
2018-08-30T04:28:45.168Z,97.94
2018-08-30T04:30:49.868Z,99.76
2018-08-30T04:32:54.614Z,99.40
2018-08-30T04:34:59.382Z,98.32
2018-08-30T04:37:05.234Z,98.73
2018-08-30T04:39:10.498Z,99.13
2018-08-30T04:41:15.161Z,100.00
2018-08-30T04:43:19.883Z,99.19
2018-08-30T04:45:24.747Z,98.93
2018-08-30T04:47:29.500Z,99.35
2018-08-30T04:49:34.385Z,98.32
2018-08-30T04:51:39.198Z,99.64
2018-08-30T04:53:43.908Z,100.00
2018-08-30T04:55:48.700Z,100.00
2018-08-30T04:57:53.550Z,100.00
2018-08-30T04:59:58.244Z,99.00
2018-08-30T05:02:03.134Z,99.94
2018-08-30T05:04:07.993Z,100.00
2018-08-30T05:06:13.314Z,98.77
2018-08-30T05:08:18.170Z,98.90
2018-08-30T05:10:23.162Z,98.59
2018-08-30T05:12:27.911Z,99.34
2018-08-30T05:14:32.660Z,99.46
2018-08-30T05:16:37.829Z,99.17
2018-08-30T05:18:42.880Z,98.26
2018-08-30T05:20:47.834Z,99.69
2018-08-30T05:22:52.763Z,100.00
2018-08-30T05:24:57.920Z,100.00
2018-08-30T05:27:02.849Z,99.66
2018-08-30T05:29:07.812Z,99.11
2018-08-30T05:31:12.518Z,98.92
2018-08-30T05:33:17.307Z,98.17
2018-08-30T05:35:22.145Z,97.29
2018-08-30T05:37:27.008Z,97.82
2018-08-30T05:39:32.103Z,97.72
2018-08-30T05:41:37.127Z,99.06
2018-08-30T05:43:41.844Z,99.79
2018-08-30T05:45:46.579Z,99.28
2018-08-30T05:47:51.703Z,98.50
2018-08-30T05:49:56.382Z,99.50
2018-08-30T05:52:01.255Z,99.55
2018-08-30T05:54:06.177Z,99.38
2018-08-30T05:56:10.917Z,98.66
2018-08-30T05:58:16.136Z,98.07
2018-08-30T06:00:20.992Z,97.61
2018-08-30T06:02:26.037Z,98.88
2018-08-30T06:04:30.861Z,98.62
2018-08-30T06:06:35.594Z,96.84
2018-08-30T06:08:40.330Z,96.59
2018-08-30T06:10:45.078Z,96.35
2018-08-30T06:12:49.821Z,95.43
2018-08-30T06:14:54.843Z,96.70
2018-08-30T06:16:59.735Z,97.06
2018-08-30T06:19:04.844Z,98.01
2018-08-30T06:21:10.235Z,97.38
2018-08-30T06:23:14.916Z,97.63
2018-08-30T06:25:19.867Z,97.63
2018-08-30T06:27:24.823Z,96.32
2018-08-30T06:29:29.492Z,96.80
2018-08-30T06:31:34.319Z,96.17
2018-08-30T06:33:38.971Z,95.92
2018-08-30T06:35:43.656Z,94.92
2018-08-30T06:37:49.245Z,93.66
2018-08-30T06:39:53.982Z,94.44
2018-08-30T06:41:58.789Z,95.22
2018-08-30T06:44:03.898Z,93.66
2018-08-30T06:46:08.568Z,92.66
2018-08-30T06:48:13.264Z,92.93
2018-08-30T06:50:18.304Z,93.58
2018-08-30T06:52:23.072Z,93.93
2018-08-30T06:54:27.771Z,93.42
2018-08-30T06:56:32.615Z,94.05
2018-08-30T06:58:37.473Z,94.45
2018-08-30T07:00:42.977Z,94.48
2018-08-30T07:02:47.843Z,93.64
2018-08-30T07:04:52.719Z,93.79
2018-08-30T07:06:57.426Z,93.25
2018-08-30T07:09:02.297Z,93.02
2018-08-30T07:11:07.036Z,91.71
2018-08-30T07:13:11.739Z,92.44
2018-08-30T07:15:16.566Z,92.33
2018-08-30T07:17:21.293Z,91.65
2018-08-30T07:19:26.252Z,91.99
2018-08-30T07:21:31.257Z,91.35
2018-08-30T07:23:36.104Z,91.35
2018-08-30T07:25:40.806Z,91.22
2018-08-30T07:27:45.570Z,91.29
2018-08-30T07:29:50.315Z,89.83
2018-08-30T07:31:55.091Z,89.30
2018-08-30T07:33:59.783Z,88.51
2018-08-30T07:36:04.665Z,87.72
2018-08-30T07:38:09.465Z,86.73
2018-08-30T07:40:14.226Z,85.76
2018-08-30T07:42:19.045Z,86.70
2018-08-30T07:44:23.913Z,86.39
2018-08-30T07:46:29.018Z,85.49
2018-08-30T07:48:33.747Z,85.91
2018-08-30T07:50:38.398Z,85.80
2018-08-30T07:52:43.153Z,86.56
2018-08-30T07:54:47.862Z,84.81
2018-08-30T07:56:53.009Z,84.55
2018-08-30T07:58:58.383Z,82.87
2018-08-30T08:01:14.847Z,84.20
2018-08-30T08:03:20.419Z,85.37
2018-08-30T08:05:25.739Z,85.52
2018-08-30T08:07:30.503Z,85.21
2018-08-30T08:09:35.184Z,85.93
2018-08-30T08:11:39.871Z,86.84
2018-08-30T08:13:44.605Z,86.41
2018-08-30T08:15:49.296Z,85.10
2018-08-30T08:17:54.014Z,84.83
2018-08-30T08:19:58.724Z,84.38
2018-08-30T08:22:03.696Z,83.94
2018-08-30T08:24:08.448Z,82.80
2018-08-30T08:26:13.208Z,81.83
2018-08-30T08:28:17.943Z,82.83
2018-08-30T08:30:23.104Z,80.45
2018-08-30T08:32:27.902Z,80.18
2018-08-30T08:34:32.744Z,79.27
2018-08-30T08:36:37.472Z,79.03
2018-08-30T08:38:42.193Z,78.54
2018-08-30T08:40:47.532Z,78.94
2018-08-30T08:42:52.350Z,78.45
2018-08-30T08:44:57.095Z,77.57
2018-08-30T08:47:01.977Z,77.54
2018-08-30T08:49:06.745Z,77.85
2018-08-30T08:51:12.167Z,78.14
2018-08-30T08:53:16.974Z,79.06
2018-08-30T08:55:21.942Z,78.13
2018-08-30T08:57:26.902Z,77.72
2018-08-30T08:59:31.756Z,78.30
2018-08-30T09:01:36.553Z,74.02
2018-08-30T09:03:41.387Z,72.12
2018-08-30T09:05:46.126Z,73.27
2018-08-30T09:07:50.983Z,73.74
2018-08-30T09:09:55.734Z,72.30
2018-08-30T09:12:00.441Z,73.56
2018-08-30T09:14:05.294Z,74.61
2018-08-30T09:16:10.031Z,73.74
2018-08-30T09:18:14.761Z,73.88
2018-08-30T09:20:19.551Z,73.31
2018-08-30T09:22:24.435Z,71.98
2018-08-30T09:24:29.231Z,71.03
2018-08-30T09:26:34.315Z,70.04
2018-08-30T09:28:39.066Z,54.04
2018-08-30T09:30:43.834Z,53.87
2018-08-30T09:32:48.612Z,53.76
2018-08-30T09:34:53.722Z,53.15
2018-08-30T09:36:58.443Z,53.18
2018-08-30T09:39:03.291Z,53.42
2018-08-30T09:41:08.186Z,52.55
2018-08-30T09:43:13.223Z,51.92
2018-08-30T09:45:18.212Z,51.99
2018-08-30T09:47:22.929Z,51.44
2018-08-30T09:49:28.133Z,51.54
2018-08-30T09:51:32.945Z,50.44
2018-08-30T09:53:37.721Z,49.36
2018-08-30T09:55:42.511Z,49.06
2018-08-30T09:57:47.198Z,48.96
2018-08-30T09:59:52.038Z,49.60
2018-08-30T10:02:01.826Z,49.25
2018-08-30T10:04:06.728Z,48.58
2018-08-30T10:06:11.535Z,49.63
2018-08-30T10:08:16.310Z,49.73
2018-08-30T10:10:21.216Z,48.93
2018-08-30T10:12:26.024Z,49.78
2018-08-30T10:14:30.813Z,49.52
2018-08-30T10:16:35.825Z,49.16
2018-08-30T10:18:40.639Z,49.05
2018-08-30T10:20:45.558Z,48.89
2018-08-30T10:22:50.428Z,47.70
2018-08-30T10:24:55.195Z,48.66
2018-08-30T10:26:59.964Z,48.35
2018-08-30T10:29:04.826Z,48.43
2018-08-30T10:31:09.581Z,48.14
2018-08-30T10:33:14.308Z,47.37
2018-08-30T10:35:19.108Z,46.89
2018-08-30T10:37:23.827Z,47.31
2018-08-30T10:39:28.657Z,46.17
2018-08-30T10:41:33.536Z,45.42
2018-08-30T10:43:38.297Z,45.53
2018-08-30T10:45:43.042Z,45.40
2018-08-30T10:47:47.764Z,45.18
2018-08-30T10:49:52.589Z,44.26
2018-08-30T10:51:57.671Z,44.49
2018-08-30T10:54:02.442Z,44.58
2018-08-30T10:56:07.215Z,44.82
2018-08-30T10:58:12.011Z,44.26
2018-08-30T11:00:17.758Z,44.16
2018-08-30T11:02:22.995Z,43.37
2018-08-30T11:04:27.973Z,43.35
2018-08-30T11:06:32.954Z,43.05
2018-08-30T11:08:37.785Z,43.12
2018-08-30T11:10:42.525Z,43.32
2018-08-30T11:12:47.292Z,41.16
2018-08-30T11:14:51.985Z,42.08
2018-08-30T11:16:56.781Z,41.69
2018-08-30T11:19:01.702Z,40.83
2018-08-30T11:21:06.577Z,40.56
2018-08-30T11:23:11.376Z,40.74
2018-08-30T11:25:16.082Z,40.28
2018-08-30T11:27:20.847Z,40.09
2018-08-30T11:29:25.881Z,39.81
2018-08-30T11:31:30.695Z,40.89
2018-08-30T11:33:38.586Z,39.69
2018-08-30T11:35:43.265Z,40.67
2018-08-30T11:37:48.008Z,41.44
2018-08-30T11:39:53.004Z,41.09
2018-08-30T11:41:57.850Z,40.26
2018-08-30T11:44:02.957Z,40.12
2018-08-30T11:46:07.966Z,40.20
2018-08-30T11:48:13.162Z,39.96
2018-08-30T11:50:18.220Z,39.16
2018-08-30T11:52:23.308Z,39.50
2018-08-30T11:54:27.969Z,39.81
2018-08-30T11:56:32.822Z,40.78
2018-08-30T11:58:37.505Z,40.87
2018-08-30T12:00:42.345Z,40.64
2018-08-30T12:02:47.424Z,40.44
2018-08-30T12:04:52.928Z,38.78
2018-08-30T12:06:57.824Z,39.40
2018-08-30T12:09:02.615Z,39.83
2018-08-30T12:11:07.474Z,39.40
2018-08-30T12:13:12.099Z,39.54
2018-08-30T12:15:16.870Z,39.85
2018-08-30T12:17:21.563Z,41.43
2018-08-30T12:19:26.323Z,41.50
2018-08-30T12:21:31.098Z,41.14
2018-08-30T12:23:35.791Z,40.21
2018-08-30T12:25:40.497Z,39.86
2018-08-30T12:27:45.227Z,38.16
2018-08-30T12:29:49.907Z,37.91
2018-08-30T12:31:54.672Z,37.68
2018-08-30T12:33:59.648Z,37.13
2018-08-30T12:36:04.608Z,37.00
2018-08-30T12:38:09.438Z,37.72
2018-08-30T12:40:14.349Z,38.09
2018-08-30T12:42:18.994Z,37.64
2018-08-30T12:44:24.244Z,37.67
2018-08-30T12:46:29.418Z,37.87
2018-08-30T12:48:34.185Z,37.43
2018-08-30T12:50:39.059Z,38.70
2018-08-30T12:52:43.856Z,38.65
2018-08-30T12:54:48.726Z,38.68
2018-08-30T12:56:53.460Z,37.02
2018-08-30T12:59:03.240Z,36.17
2018-08-30T13:01:08.447Z,36.20
2018-08-30T13:03:13.329Z,35.66
2018-08-30T13:05:18.281Z,36.01
2018-08-30T13:07:24.717Z,35.62
2018-08-30T13:09:29.851Z,36.07
2018-08-30T13:11:34.592Z,36.16
2018-08-30T13:13:39.431Z,35.98
2018-08-30T13:15:44.394Z,35.74
2018-08-30T13:17:49.366Z,36.25
2018-08-30T13:19:54.206Z,36.51
2018-08-30T13:21:58.917Z,36.00
2018-08-30T13:24:03.724Z,34.98
2018-08-30T13:26:08.752Z,33.98
2018-08-30T13:28:13.426Z,34.27
2018-08-30T13:30:18.479Z,34.60
2018-08-30T13:32:23.342Z,34.99
2018-08-30T13:34:27.755Z,35.55
2018-08-30T13:36:32.468Z,34.97
2018-08-30T13:38:37.357Z,35.50
2018-08-30T13:40:42.238Z,34.82
2018-08-30T13:42:46.927Z,35.05
2018-08-30T13:44:51.723Z,35.77
2018-08-30T13:46:56.486Z,36.23
2018-08-30T13:49:01.421Z,36.90
2018-08-30T13:51:06.277Z,37.07
2018-08-30T13:53:11.188Z,36.83
2018-08-30T13:55:16.201Z,36.42
2018-08-30T13:57:20.905Z,35.47
2018-08-30T13:59:25.788Z,35.23
2018-08-30T14:01:31.892Z,35.13
2018-08-30T14:03:36.220Z,35.69
2018-08-30T14:05:41.092Z,35.48
2018-08-30T14:07:45.945Z,35.84
2018-08-30T14:09:50.876Z,35.68
2018-08-30T14:11:56.173Z,36.82
2018-08-30T14:14:00.713Z,37.58
2018-08-30T14:16:05.307Z,37.63
2018-08-30T14:18:09.994Z,37.93
2018-08-30T14:20:14.868Z,37.40
2018-08-30T14:22:19.711Z,37.81
2018-08-30T14:24:24.423Z,37.37
2018-08-30T14:26:29.236Z,36.96
2018-08-30T14:28:33.973Z,36.75
2018-08-30T14:30:38.724Z,36.51
2018-08-30T14:32:43.500Z,35.90
2018-08-30T14:34:48.299Z,35.54
2018-08-30T14:36:53.134Z,35.69
2018-08-30T14:38:58.351Z,35.35
2018-08-30T14:41:03.117Z,35.31
2018-08-30T14:43:07.954Z,35.41
2018-08-30T14:45:13.140Z,35.64
2018-08-30T14:47:17.838Z,35.19
2018-08-30T14:49:22.639Z,35.23
2018-08-30T14:51:28.019Z,34.86
2018-08-30T14:53:32.828Z,34.80
2018-08-30T14:55:37.603Z,34.54
2018-08-30T14:57:42.343Z,34.10
2018-08-30T14:59:47.310Z,34.30
2018-08-30T15:01:52.467Z,33.75
2018-08-30T15:03:57.405Z,34.44
2018-08-30T15:06:02.679Z,34.20
2018-08-30T15:08:07.367Z,34.58
2018-08-30T15:10:12.179Z,34.13
2018-08-30T15:12:17.004Z,33.86
2018-08-30T15:14:21.955Z,34.37
2018-08-30T15:16:26.707Z,34.04
2018-08-30T15:18:31.537Z,34.68
2018-08-30T15:20:36.569Z,34.39
2018-08-30T15:22:41.553Z,34.37
2018-08-30T15:24:46.194Z,34.68
2018-08-30T15:26:50.940Z,34.97
2018-08-30T15:28:55.860Z,34.73
2018-08-30T15:31:00.710Z,34.80
2018-08-30T15:33:05.637Z,35.17
2018-08-30T15:35:10.428Z,35.20
2018-08-30T15:37:15.198Z,34.77
2018-08-30T15:39:20.024Z,34.73
2018-08-30T15:41:24.955Z,34.85
2018-08-30T15:43:29.571Z,34.81
2018-08-30T15:45:34.452Z,34.39
2018-08-30T15:47:39.313Z,34.68
2018-08-30T15:49:44.308Z,34.86
2018-08-30T15:51:49.117Z,34.52
2018-08-30T15:53:53.954Z,34.26
2018-08-30T15:55:58.674Z,34.07
2018-08-30T15:58:03.497Z,35.01
2018-08-30T16:00:08.948Z,34.83
2018-08-30T16:02:13.948Z,34.69
2018-08-30T16:04:18.672Z,34.18
2018-08-30T16:06:23.588Z,34.23
2018-08-30T16:08:28.261Z,34.10
2018-08-30T16:10:33.017Z,33.96
2018-08-30T16:12:38.009Z,32.38
2018-08-30T16:14:42.838Z,32.38
2018-08-30T16:16:48.450Z,32.55
2018-08-30T16:18:53.563Z,32.49
2018-08-30T16:20:58.507Z,32.30
2018-08-30T16:23:08.659Z,33.69
2018-08-30T16:25:13.416Z,33.33
2018-08-30T16:27:18.271Z,32.87
2018-08-30T16:29:23.071Z,33.95
2018-08-30T16:31:28.055Z,33.91
2018-08-30T16:33:32.940Z,33.96
2018-08-30T16:35:37.753Z,34.63
2018-08-30T16:37:42.860Z,34.55
2018-08-30T16:39:47.748Z,34.73
2018-08-30T16:41:52.595Z,34.78
2018-08-30T16:43:57.476Z,35.21
2018-08-30T16:46:02.354Z,35.62
2018-08-30T16:48:07.525Z,35.33
2018-08-30T16:50:12.388Z,34.98
2018-08-30T16:52:17.053Z,35.68
2018-08-30T16:54:21.881Z,35.73
2018-08-30T16:56:26.849Z,35.47
2018-08-30T16:58:31.601Z,35.55
2018-08-30T17:00:36.718Z,35.73
2018-08-30T17:02:41.941Z,35.80
2018-08-30T17:04:46.743Z,35.80
2018-08-30T17:06:51.607Z,35.81
2018-08-30T17:08:56.500Z,35.79
2018-08-30T17:11:01.316Z,35.59
2018-08-30T17:13:06.045Z,36.07
2018-08-30T17:15:10.863Z,35.91
2018-08-30T17:17:16.134Z,35.81
2018-08-30T17:19:29.077Z,35.48
2018-08-30T17:21:34.036Z,35.61
2018-08-30T17:23:38.948Z,35.47
2018-08-30T17:25:44.115Z,35.82
2018-08-30T17:27:48.963Z,36.37
2018-08-30T17:29:53.810Z,36.31
2018-08-30T17:31:58.618Z,36.04
2018-08-30T17:34:03.430Z,36.11
2018-08-30T17:36:08.444Z,36.18
2018-08-30T17:38:13.136Z,36.68
2018-08-30T17:40:18.067Z,36.79
2018-08-30T17:42:22.840Z,36.50
2018-08-30T17:44:27.754Z,36.68
2018-08-30T17:46:32.602Z,37.04
2018-08-30T17:48:37.383Z,36.41
2018-08-30T17:50:42.211Z,36.83
2018-08-30T17:52:47.174Z,36.89
2018-08-30T17:54:52.194Z,36.99
2018-08-30T17:56:57.080Z,37.07
2018-08-30T17:59:01.923Z,37.76
2018-08-30T18:01:06.821Z,38.19
2018-08-30T18:03:11.993Z,39.45
2018-08-30T18:05:17.174Z,39.29
2018-08-30T18:07:21.896Z,39.50
2018-08-30T18:09:26.747Z,40.67
2018-08-30T18:11:31.721Z,40.33
2018-08-30T18:13:36.560Z,41.42
2018-08-30T18:15:41.372Z,41.42
2018-08-30T18:17:46.708Z,41.44
2018-08-30T18:19:52.473Z,42.12
2018-08-30T18:21:57.223Z,41.84
2018-08-30T18:24:02.706Z,42.42
2018-08-30T18:26:07.895Z,42.41
2018-08-30T18:28:12.916Z,42.93
2018-08-30T18:30:18.119Z,42.29
2018-08-30T18:32:23.121Z,42.76
2018-08-30T18:34:28.522Z,42.82
2018-08-30T18:36:33.680Z,42.92
2018-08-30T18:38:38.960Z,42.48
2018-08-30T18:40:43.873Z,42.89
2018-08-30T18:42:48.951Z,42.32
2018-08-30T18:44:53.834Z,42.63
2018-08-30T18:46:58.899Z,42.85
2018-08-30T18:49:03.815Z,43.03
2018-08-30T18:51:08.730Z,43.88
2018-08-30T18:53:13.638Z,44.46
2018-08-30T18:55:18.662Z,44.68
2018-08-30T18:57:24.442Z,44.65
2018-08-30T18:59:29.283Z,45.62
2018-08-30T19:01:34.644Z,45.41
2018-08-30T19:03:41.788Z,45.61
2018-08-30T19:05:46.881Z,45.66
2018-08-30T19:07:52.202Z,45.83
2018-08-30T19:09:57.500Z,46.13
2018-08-30T19:12:04.167Z,46.36
2018-08-30T19:14:10.734Z,46.62
2018-08-30T19:18:22.277Z,46.24
2018-08-30T19:20:28.650Z,46.32
2018-08-30T19:22:33.922Z,46.14
2018-08-30T19:24:44.892Z,46.41
2018-08-30T19:26:50.835Z,46.97
2018-08-30T19:28:57.057Z,46.73
2018-08-30T19:31:02.986Z,46.92
2018-08-30T19:33:12.097Z,46.94
2018-08-30T19:35:25.516Z,46.91
2018-08-30T19:37:32.199Z,47.20
2018-08-30T19:39:41.751Z,47.17
2018-08-30T19:41:51.241Z,46.88
2018-08-30T19:44:00.547Z,47.21
2018-08-30T19:46:12.468Z,47.37
2018-08-30T19:48:21.744Z,47.95
2018-08-30T19:50:28.959Z,47.64
2018-08-30T19:52:36.752Z,47.85
2018-08-30T19:54:45.482Z,47.55
2018-08-30T19:56:50.749Z,46.99
2018-08-30T19:58:57.236Z,47.04
2018-08-30T20:01:05.976Z,47.54
2018-08-30T20:03:15.161Z,47.13
2018-08-30T20:05:22.833Z,47.40
2018-08-30T20:07:28.345Z,47.78
2018-08-30T20:09:33.563Z,47.65
2018-08-30T20:11:39.549Z,48.21
2018-08-30T20:13:45.106Z,48.25
2018-08-30T20:15:50.924Z,48.34
2018-08-30T20:17:57.456Z,47.83
2018-08-30T20:20:02.658Z,48.72
2018-08-30T20:22:11.675Z,49.09
2018-08-30T20:24:17.027Z,49.33
2018-08-30T20:26:22.429Z,48.81
2018-08-30T20:28:27.670Z,49.19
2018-08-30T20:33:16.438Z,49.58
2018-08-30T20:35:21.653Z,50.32
2018-08-30T20:37:26.563Z,50.36
2018-08-30T20:39:31.760Z,49.84
2018-08-30T20:41:36.654Z,49.91
2018-08-30T20:43:41.419Z,50.57
2018-08-30T20:45:46.480Z,51.08
2018-08-30T20:47:52.029Z,51.25
2018-08-30T20:49:57.353Z,50.75
2018-08-30T20:52:02.440Z,51.46
2018-08-30T20:54:10.155Z,51.09
2018-08-30T20:56:15.346Z,51.61
2018-08-30T20:58:20.512Z,51.83
2018-08-30T21:00:25.561Z,52.41
2018-08-30T21:02:30.447Z,52.24
2018-08-30T21:04:35.395Z,52.35
2018-08-30T21:06:40.494Z,52.47
2018-08-30T21:08:45.501Z,52.34
2018-08-30T21:10:51.489Z,52.49
2018-08-30T21:12:56.264Z,52.91
2018-08-30T21:15:01.047Z,52.60
2018-08-30T21:17:06.343Z,52.00
2018-08-30T21:19:11.109Z,52.44
2018-08-30T21:21:15.852Z,52.43
2018-08-30T21:23:20.795Z,52.62
2018-08-30T21:25:25.807Z,52.66
2018-08-30T21:27:30.712Z,52.73
2018-08-30T21:29:35.752Z,52.65
2018-08-30T21:31:40.528Z,52.36
2018-08-30T21:33:45.304Z,52.43
2018-08-30T21:35:50.432Z,52.88
2018-08-30T21:37:55.337Z,52.96
2018-08-30T21:40:00.542Z,53.18
2018-08-30T21:42:05.708Z,53.68
2018-08-30T21:44:10.551Z,53.58
2018-08-30T21:46:15.381Z,53.53
2018-08-30T21:48:20.541Z,53.83
2018-08-30T21:50:25.438Z,53.64
2018-08-30T21:52:30.218Z,53.90
2018-08-30T21:54:35.085Z,54.27
2018-08-30T21:56:39.875Z,54.55
2018-08-30T21:58:44.831Z,54.55
2018-08-30T22:00:49.725Z,54.38
2018-08-30T22:02:54.714Z,54.34
2018-08-30T22:04:59.693Z,54.64
2018-08-30T22:07:04.607Z,54.27
2018-08-30T22:09:11.722Z,54.64
2018-08-30T22:11:16.446Z,54.58
2018-08-30T22:13:21.396Z,54.65
2018-08-30T22:15:26.146Z,54.76
2018-08-30T22:17:30.952Z,54.58
2018-08-30T22:19:35.884Z,54.50
2018-08-30T22:21:40.779Z,54.73
2018-08-30T22:23:45.497Z,54.49
2018-08-30T22:25:50.412Z,54.86
2018-08-30T22:27:55.221Z,55.20
2018-08-30T22:30:00.071Z,55.19
2018-08-30T22:32:04.991Z,55.75
2018-08-30T22:34:09.728Z,55.94
2018-08-30T22:36:14.742Z,55.98
2018-08-30T22:38:19.527Z,54.94
2018-08-30T22:40:24.424Z,55.51
2018-08-30T22:42:29.066Z,55.05
2018-08-30T22:44:33.946Z,55.87
2018-08-30T22:46:38.726Z,55.97
2018-08-30T22:48:43.631Z,56.21
2018-08-30T22:50:48.420Z,56.33
2018-08-30T22:52:53.102Z,56.31
2018-08-30T22:54:57.962Z,56.69
2018-08-30T22:57:02.885Z,56.66
2018-08-30T22:59:07.806Z,56.86
2018-08-30T23:01:12.669Z,56.61
2018-08-30T23:03:17.473Z,57.20
2018-08-30T23:05:22.162Z,57.27
2018-08-30T23:07:27.251Z,57.44
2018-08-30T23:09:32.048Z,57.66
2018-08-30T23:11:36.943Z,57.85
2018-08-30T23:13:41.692Z,57.80
2018-08-30T23:15:46.363Z,57.75
2018-08-30T23:17:51.278Z,58.10
2018-08-30T23:19:56.261Z,58.28
2018-08-30T23:22:01.247Z,58.03
2018-08-30T23:24:06.409Z,58.22
2018-08-30T23:28:18.403Z,58.05
2018-08-30T23:30:23.482Z,58.08
2018-08-30T23:32:28.407Z,58.42
2018-08-30T23:34:33.152Z,58.35
2018-08-30T23:36:37.989Z,58.70
2018-08-30T23:38:42.888Z,59.06
2018-08-30T23:40:47.914Z,58.39
2018-08-30T23:42:52.703Z,58.41
2018-08-30T23:44:57.588Z,58.67
2018-08-30T23:47:02.490Z,58.93
2018-08-30T23:49:07.745Z,59.03
2018-08-30T23:51:12.720Z,58.81
2018-08-30T23:53:17.634Z,59.35
2018-08-30T23:55:22.482Z,59.26
2018-08-30T23:57:27.192Z,59.36
